createdAt,value
2023-01-04T00:00:46.756Z,5.20
2023-01-04T00:05:52.379Z,5.87
2023-01-04T00:11:08.659Z,5.57
2023-01-04T00:16:17.519Z,4.67
2023-01-04T00:21:28.397Z,5.97
2023-01-04T00:26:36.113Z,5.77
2023-01-04T00:31:42.375Z,5.43
2023-01-04T00:36:48.111Z,6.17
2023-01-04T00:42:00.107Z,7.03
2023-01-04T00:47:03.579Z,5.90
2023-01-04T00:52:09.895Z,5.90
2023-01-04T00:57:15.423Z,7.33
2023-01-04T01:02:21.047Z,6.03
2023-01-04T01:07:26.625Z,5.60
2023-01-04T01:12:32.158Z,6.70
2023-01-04T01:17:37.675Z,5.67
2023-01-04T01:22:43.401Z,6.20
2023-01-04T01:27:48.785Z,6.07
2023-01-04T01:32:54.237Z,7.47
2023-01-04T01:37:59.709Z,6.63
2023-01-04T01:43:05.136Z,6.50
2023-01-04T01:48:16.720Z,7.10
2023-01-04T01:53:23.503Z,6.70
2023-01-04T01:58:34.676Z,7.27
2023-01-04T02:03:44.722Z,6.77
2023-01-04T02:08:51.018Z,6.50
2023-01-04T02:14:15.978Z,7.40
2023-01-04T02:19:45.518Z,7.13
2023-01-04T02:25:15.142Z,6.97
2023-01-04T02:30:48.112Z,6.87
2023-01-04T02:36:05.132Z,6.37
2023-01-04T02:41:31.821Z,6.90
2023-01-04T02:46:40.545Z,6.17
2023-01-04T02:51:46.445Z,6.10
2023-01-04T02:57:17.913Z,7.03
2023-01-04T03:03:13.166Z,6.40
2023-01-04T03:08:36.534Z,7.20
2023-01-04T03:13:45.879Z,8.00
2023-01-04T03:18:54.568Z,6.07
2023-01-04T03:24:07.084Z,6.30
2023-01-04T03:29:39.722Z,6.33
2023-01-04T03:35:03.589Z,6.17
2023-01-04T03:40:44.980Z,5.93
2023-01-04T03:46:11.443Z,6.43
2023-01-04T03:51:21.210Z,7.20
2023-01-04T03:56:29.597Z,7.30
2023-01-04T04:01:36.273Z,6.57
2023-01-04T04:06:59.972Z,6.50
2023-01-04T04:12:05.469Z,5.90
2023-01-04T04:17:10.837Z,6.57
2023-01-04T04:22:16.438Z,5.57
2023-01-04T04:27:21.824Z,6.00
2023-01-04T04:32:27.542Z,5.63
2023-01-04T04:37:34.359Z,6.43
2023-01-04T04:42:39.946Z,5.73
2023-01-04T04:47:45.438Z,6.13
2023-01-04T04:52:55.736Z,5.20
2023-01-04T04:57:58.036Z,6.73
2023-01-04T05:03:04.150Z,5.70
2023-01-04T05:08:09.848Z,6.30
2023-01-04T05:13:15.407Z,5.07
2023-01-04T05:18:23.251Z,5.83
2023-01-04T05:23:28.779Z,5.50
2023-01-04T05:28:34.231Z,5.27
2023-01-04T05:33:39.752Z,5.10
2023-01-04T05:38:45.291Z,5.00
2023-01-04T05:43:50.750Z,4.97
2023-01-04T05:48:56.140Z,4.70
2023-01-04T05:54:01.636Z,4.87
2023-01-04T05:59:07.013Z,4.87
2023-01-04T06:04:12.514Z,5.23
2023-01-04T06:09:18.280Z,4.93
2023-01-04T06:14:23.673Z,4.30
2023-01-04T06:19:29.291Z,4.40
2023-01-04T06:24:35.091Z,4.60
2023-01-04T06:29:40.529Z,5.00
2023-01-04T06:34:46.057Z,4.50
2023-01-04T06:39:51.501Z,4.50
2023-01-04T06:44:56.863Z,5.30
2023-01-04T06:50:02.480Z,3.70
2023-01-04T06:55:10.784Z,4.73
2023-01-04T07:00:17.059Z,4.50
2023-01-04T07:05:22.506Z,3.50
2023-01-04T07:10:28.118Z,3.87
2023-01-04T07:15:38.349Z,3.40
2023-01-04T07:20:41.340Z,3.27
2023-01-04T07:25:46.786Z,3.70
2023-01-04T07:30:52.344Z,3.77
2023-01-04T07:36:01.544Z,3.23
2023-01-04T07:41:07.266Z,2.70
2023-01-04T07:46:12.910Z,3.40
2023-01-04T07:51:18.373Z,3.03
2023-01-04T07:56:23.880Z,3.40
2023-01-04T08:01:29.793Z,2.63
2023-01-04T08:06:36.933Z,2.87
2023-01-04T08:11:42.556Z,2.50
2023-01-04T08:16:48.271Z,3.07
2023-01-04T08:21:53.831Z,3.00
2023-01-04T08:26:59.582Z,2.70
2023-01-04T08:32:06.076Z,2.33
2023-01-04T08:37:11.485Z,3.00
2023-01-04T08:42:24.789Z,2.53
2023-01-04T08:47:24.081Z,2.97
2023-01-04T08:52:29.453Z,2.53
2023-01-04T08:57:36.568Z,2.90
2023-01-04T09:02:42.392Z,2.63
2023-01-04T09:07:48.186Z,2.33
2023-01-04T09:12:53.857Z,2.70
2023-01-04T09:18:30.727Z,1.90
2023-01-04T09:23:06.523Z,2.30
2023-01-04T09:28:11.973Z,2.77
2023-01-04T09:33:17.389Z,2.83
2023-01-04T09:38:22.840Z,3.20
2023-01-04T09:43:31.311Z,2.47
2023-01-04T09:48:41.221Z,2.57
2023-01-04T09:53:49.735Z,3.00
2023-01-04T09:58:55.881Z,2.63
2023-01-04T10:04:10.205Z,2.60
2023-01-04T10:09:17.897Z,2.67
2023-01-04T10:14:35.545Z,2.50
2023-01-04T10:25:26.038Z,2.37
2023-01-04T10:30:57.314Z,2.80
2023-01-04T10:36:03.475Z,2.80
2023-01-04T10:41:15.047Z,2.20
2023-01-04T10:46:23.523Z,2.10
2023-01-04T10:51:50.394Z,2.30
2023-01-04T10:57:11.740Z,2.13
2023-01-04T11:02:29.599Z,2.30
2023-01-04T11:07:43.783Z,2.10
2023-01-04T11:12:49.538Z,2.47
2023-01-04T11:17:55.565Z,2.07
2023-01-04T11:23:18.906Z,1.73
2023-01-04T11:28:34.037Z,2.03
2023-01-04T11:34:00.419Z,1.60
2023-01-04T11:39:09.229Z,1.80
2023-01-04T11:44:17.659Z,1.80
2023-01-04T11:49:23.036Z,2.00
2023-01-04T11:54:28.512Z,1.50
2023-01-04T11:59:34.473Z,1.60
2023-01-04T12:04:40.000Z,1.90
2023-01-04T12:09:45.527Z,1.67
2023-01-04T12:14:51.870Z,1.60
2023-01-04T12:20:00.335Z,1.63
2023-01-04T12:25:09.003Z,1.90
2023-01-04T12:30:17.428Z,2.27
2023-01-04T12:35:57.420Z,1.50
2023-01-04T12:41:03.160Z,1.90
2023-01-04T12:46:49.563Z,2.20
2023-01-04T12:52:48.349Z,2.70
2023-01-04T12:57:24.977Z,2.33
2023-01-04T13:02:35.619Z,2.07
2023-01-04T13:07:52.930Z,2.30
2023-01-04T13:13:04.083Z,2.20
2023-01-04T13:18:21.778Z,2.13
2023-01-04T13:23:28.791Z,1.73
2023-01-04T13:28:36.256Z,2.37
2023-01-04T13:33:43.296Z,2.30
2023-01-04T13:38:48.813Z,2.47
2023-01-04T13:44:00.155Z,1.93
2023-01-04T13:49:06.034Z,2.97
2023-01-04T13:54:28.954Z,2.30
2023-01-04T13:59:32.716Z,2.63
2023-01-04T14:04:38.360Z,2.67
2023-01-04T14:09:49.517Z,2.40
2023-01-04T14:14:59.601Z,2.70
2023-01-04T14:20:16.902Z,2.20
2023-01-04T14:25:48.123Z,2.10
2023-01-04T14:30:59.936Z,2.53
2023-01-04T14:36:11.883Z,1.93
2023-01-04T14:41:20.585Z,2.27
2023-01-04T14:46:26.550Z,2.37
2023-01-04T14:51:38.415Z,2.17
2023-01-04T14:56:44.014Z,3.30
2023-01-04T15:01:49.483Z,2.53
2023-01-04T15:06:58.034Z,2.20
2023-01-04T15:12:03.559Z,2.53
2023-01-04T15:17:10.505Z,2.20
2023-01-04T15:22:16.076Z,2.37
2023-01-04T15:27:24.473Z,2.70
2023-01-04T15:32:28.607Z,2.27
2023-01-04T15:37:34.069Z,2.23
2023-01-04T15:42:57.670Z,2.20
2023-01-04T15:48:05.820Z,2.40
2023-01-04T15:53:12.023Z,2.20
2023-01-04T15:58:17.391Z,1.57
2023-01-04T16:03:22.947Z,2.37
2023-01-04T16:08:28.520Z,2.50
2023-01-04T16:13:34.658Z,2.17
2023-01-04T16:18:42.022Z,2.50
2023-01-04T16:23:55.888Z,2.50
2023-01-04T16:29:01.058Z,2.23
2023-01-04T16:34:07.215Z,2.50
2023-01-04T16:39:13.079Z,1.93
2023-01-04T16:44:20.336Z,2.20
2023-01-04T16:49:26.032Z,2.53
2023-01-04T16:54:31.631Z,1.80
2023-01-04T16:59:37.212Z,2.77
2023-01-04T17:04:42.668Z,2.60
2023-01-04T17:09:49.783Z,2.67
2023-01-04T17:15:23.451Z,2.60
2023-01-04T17:20:04.729Z,2.83
2023-01-04T17:25:10.731Z,2.83
2023-01-04T17:30:16.515Z,2.63
2023-01-04T17:35:22.053Z,2.67
2023-01-04T17:40:27.672Z,2.10
2023-01-04T17:45:34.114Z,1.50
2023-01-04T17:50:39.666Z,1.70
2023-01-04T17:55:45.210Z,1.70
2023-01-04T18:00:50.610Z,2.00
2023-01-04T18:06:15.551Z,2.00
2023-01-04T18:11:08.006Z,1.43
2023-01-04T18:16:24.393Z,1.20
2023-01-04T18:21:31.043Z,1.07
2023-01-04T18:27:01.990Z,1.27
2023-01-04T18:31:44.055Z,0.93
2023-01-04T18:36:49.655Z,1.00
2023-01-04T18:41:55.185Z,1.20
2023-01-04T18:47:00.740Z,1.20
2023-01-04T18:52:06.603Z,1.60
2023-01-04T18:57:12.690Z,1.80
2023-01-04T19:02:20.687Z,2.03
2023-01-04T19:07:26.709Z,2.53
2023-01-04T19:12:32.243Z,2.50
2023-01-04T19:17:38.790Z,2.83
2023-01-04T19:22:44.378Z,2.23
2023-01-04T19:27:49.930Z,2.40
2023-01-04T19:32:55.468Z,2.17
2023-01-04T19:38:01.889Z,2.20
2023-01-04T19:43:07.807Z,2.07
2023-01-04T19:48:13.352Z,1.97
2023-01-04T19:53:18.795Z,2.27
2023-01-04T19:58:24.202Z,2.43
2023-01-04T20:03:29.823Z,2.20
2023-01-04T20:08:35.775Z,2.40
2023-01-04T20:13:41.685Z,2.70
2023-01-04T20:18:47.932Z,2.37
2023-01-04T20:23:53.595Z,0.80
2023-01-04T20:28:59.136Z,0.90
2023-01-04T20:34:04.658Z,0.87
2023-01-04T20:39:10.213Z,1.00
2023-01-04T20:44:15.610Z,0.70
2023-01-04T20:49:21.991Z,1.20
2023-01-04T20:54:27.438Z,2.07
2023-01-04T20:59:33.095Z,2.00
2023-01-04T21:04:38.773Z,2.10
2023-01-04T21:09:45.374Z,1.80
2023-01-04T21:14:50.833Z,1.93
2023-01-04T21:19:56.303Z,2.00
2023-01-04T21:25:01.697Z,1.60
2023-01-04T21:30:08.006Z,1.37
2023-01-04T21:35:13.588Z,2.10
2023-01-04T21:40:24.180Z,1.90
2023-01-04T21:45:30.841Z,2.40
2023-01-04T21:50:37.870Z,1.80
2023-01-04T21:55:43.335Z,1.80
2023-01-04T22:00:48.966Z,1.97
2023-01-04T22:05:54.492Z,2.20
2023-01-04T22:11:00.159Z,2.10
2023-01-04T22:16:11.351Z,1.40
2023-01-04T22:21:19.421Z,1.70
2023-01-04T22:26:25.040Z,1.53
2023-01-04T22:31:30.699Z,1.60
2023-01-04T22:36:36.243Z,2.07
2023-01-04T22:41:43.921Z,1.27
2023-01-04T22:46:49.568Z,1.80
2023-01-04T22:51:57.337Z,1.67
2023-01-04T22:57:02.818Z,1.97
2023-01-04T23:02:08.380Z,2.00
2023-01-04T23:07:13.834Z,1.80
2023-01-04T23:12:19.278Z,1.80
2023-01-04T23:17:24.762Z,1.60
2023-01-04T23:22:30.133Z,1.60
2023-01-04T23:27:35.581Z,1.90
2023-01-04T23:32:41.119Z,2.27
2023-01-04T23:37:46.560Z,1.90
2023-01-04T23:42:53.510Z,1.47
2023-01-04T23:47:58.953Z,1.50
2023-01-04T23:53:04.357Z,1.83
2023-01-04T23:58:09.807Z,1.33
